createdAt,value
2023-01-27T00:00:27.838Z,92820.75
2023-01-27T00:01:24.592Z,92818.44
2023-01-27T00:02:21.313Z,92814.56
2023-01-27T00:03:18.393Z,92815.34
2023-01-27T00:04:15.032Z,92729.25
2023-01-27T00:05:13.700Z,92815.22
2023-01-27T00:06:12.015Z,92820.16
2023-01-27T00:07:08.602Z,92789.31
2023-01-27T00:08:05.378Z,92811.63
2023-01-27T00:09:02.000Z,92818.44
2023-01-27T00:09:58.549Z,92815.63
2023-01-27T00:11:19.966Z,92815.53
2023-01-27T00:12:41.178Z,92823.75
2023-01-27T00:13:37.916Z,92822.88
2023-01-27T00:14:34.471Z,92828.00
2023-01-27T00:15:32.117Z,92822.78
2023-01-27T00:16:28.830Z,92818.81
2023-01-27T00:17:25.511Z,92819.97
2023-01-27T00:18:23.603Z,92795.03
2023-01-27T00:19:20.253Z,92828.66
2023-01-27T00:20:35.451Z,92828.97
2023-01-27T00:21:50.329Z,92825.03
2023-01-27T00:23:19.098Z,92822.53
2023-01-27T00:24:34.646Z,92816.47
2023-01-27T00:25:31.957Z,92819.19
2023-01-27T00:26:28.578Z,92814.75
2023-01-27T00:27:27.246Z,92816.97
2023-01-27T00:28:25.586Z,92807.56
2023-01-27T00:29:22.304Z,92801.00
2023-01-27T00:30:18.962Z,92810.13
2023-01-27T00:31:36.575Z,92806.88
2023-01-27T00:32:52.119Z,92809.50
2023-01-27T00:33:49.573Z,92799.44
2023-01-27T00:34:46.500Z,92775.06
2023-01-27T00:35:43.099Z,92767.22
2023-01-27T00:36:42.020Z,92773.81
2023-01-27T00:37:38.657Z,92757.31
2023-01-27T00:38:42.030Z,92780.06
2023-01-27T00:39:38.997Z,92778.91
2023-01-27T00:40:35.613Z,92776.28
2023-01-27T00:41:33.997Z,92776.84
2023-01-27T00:42:30.609Z,92772.38
2023-01-27T00:43:27.160Z,92775.00
2023-01-27T00:44:24.022Z,92744.63
2023-01-27T00:45:39.459Z,92777.75
2023-01-27T00:46:36.060Z,92784.00
2023-01-27T00:47:33.965Z,92776.28
2023-01-27T00:48:30.978Z,92791.31
2023-01-27T00:49:27.705Z,92782.78
2023-01-27T00:50:24.732Z,92799.22
2023-01-27T00:51:21.661Z,92796.81
2023-01-27T00:52:18.318Z,92798.88
2023-01-27T00:53:15.017Z,92805.22
2023-01-27T00:54:11.735Z,92800.59
2023-01-27T00:55:08.995Z,92788.88
2023-01-27T00:56:06.173Z,92803.78
2023-01-27T00:57:04.441Z,92791.56
2023-01-27T00:58:01.092Z,92800.66
2023-01-27T00:58:57.693Z,92795.38
2023-01-27T00:59:54.338Z,92803.06
2023-01-27T01:00:53.579Z,92779.66
2023-01-27T01:01:50.232Z,92798.59
2023-01-27T01:02:46.934Z,92803.78
2023-01-27T01:03:44.613Z,92806.16
2023-01-27T01:04:41.246Z,92803.59
2023-01-27T01:05:38.020Z,92799.72
2023-01-27T01:06:34.729Z,92798.41
2023-01-27T01:07:31.292Z,92801.16
2023-01-27T01:08:29.958Z,92787.69
2023-01-27T01:09:26.756Z,92799.69
2023-01-27T01:10:23.460Z,92798.41
2023-01-27T01:11:21.463Z,92773.19
2023-01-27T01:12:18.171Z,92800.50
2023-01-27T01:13:14.891Z,92802.34
2023-01-27T01:14:11.522Z,92798.00
2023-01-27T01:15:08.958Z,92787.09
2023-01-27T01:16:12.970Z,92802.47
2023-01-27T01:17:09.759Z,92799.91
2023-01-27T01:18:09.201Z,92801.28
2023-01-27T01:19:05.802Z,92745.94
2023-01-27T01:20:02.568Z,92799.72
2023-01-27T01:20:59.241Z,92797.22
2023-01-27T01:21:55.875Z,92788.72
2023-01-27T01:22:52.474Z,92792.66
2023-01-27T01:23:49.111Z,92785.22
2023-01-27T01:24:45.960Z,92792.34
2023-01-27T01:25:42.733Z,92774.56
2023-01-27T01:26:39.330Z,92788.59
2023-01-27T01:27:35.969Z,92790.44
2023-01-27T01:28:33.133Z,92790.31
2023-01-27T01:29:29.878Z,92788.06
2023-01-27T01:30:27.532Z,92782.81
2023-01-27T01:31:24.200Z,92781.88
2023-01-27T01:32:20.928Z,92734.31
2023-01-27T01:33:17.710Z,92761.59
2023-01-27T01:34:14.264Z,92786.09
2023-01-27T01:35:10.908Z,92780.16
2023-01-27T01:36:09.756Z,92781.53
2023-01-27T01:37:06.437Z,92790.19
2023-01-27T01:38:03.037Z,92791.63
2023-01-27T01:38:59.642Z,92785.22
2023-01-27T01:39:56.300Z,92788.69
2023-01-27T01:40:52.873Z,92794.66
2023-01-27T01:41:49.459Z,92792.94
2023-01-27T01:43:08.787Z,92792.00
2023-01-27T01:44:27.299Z,92795.53
2023-01-27T01:45:48.906Z,92807.84
2023-01-27T01:46:45.533Z,92796.75
2023-01-27T01:47:42.137Z,92809.28
2023-01-27T01:48:43.191Z,92814.91
2023-01-27T01:49:40.979Z,92813.69
2023-01-27T01:50:40.830Z,92821.81
2023-01-27T01:51:41.980Z,92821.94
2023-01-27T01:52:38.576Z,92827.81
2023-01-27T01:53:42.013Z,92815.16
2023-01-27T01:54:48.423Z,92798.34
2023-01-27T01:55:46.640Z,92829.28
2023-01-27T01:57:04.568Z,92827.56
2023-01-27T01:58:02.619Z,92813.34
2023-01-27T01:59:05.274Z,92818.47
2023-01-27T02:00:07.901Z,92814.41
2023-01-27T02:01:05.809Z,92768.13
2023-01-27T02:02:07.705Z,92809.63
2023-01-27T02:03:04.684Z,92766.78
2023-01-27T02:04:04.739Z,92804.28
2023-01-27T02:05:06.817Z,92799.84
2023-01-27T02:06:05.031Z,92797.53
2023-01-27T02:07:13.501Z,92789.19
2023-01-27T02:08:27.529Z,92767.38
2023-01-27T02:09:24.717Z,92754.72
2023-01-27T02:10:21.402Z,92765.84
2023-01-27T02:11:18.637Z,92746.09
2023-01-27T02:12:15.360Z,92772.19
2023-01-27T02:13:12.342Z,92762.97
2023-01-27T02:14:11.180Z,92724.28
2023-01-27T02:15:10.123Z,92756.66
2023-01-27T02:16:08.356Z,92763.03
2023-01-27T02:17:05.781Z,92750.13
2023-01-27T02:18:03.545Z,92752.19
2023-01-27T02:19:00.137Z,92738.72
2023-01-27T02:20:14.757Z,92743.84
2023-01-27T02:21:11.521Z,92744.78
2023-01-27T02:22:13.861Z,92736.28
2023-01-27T02:23:27.907Z,92734.94
2023-01-27T02:24:32.599Z,92719.28
2023-01-27T02:25:35.059Z,92722.34
2023-01-27T02:26:33.657Z,92710.13
2023-01-27T02:27:30.306Z,92716.31
2023-01-27T02:28:29.246Z,92716.50
2023-01-27T02:29:25.908Z,92716.22
2023-01-27T02:30:22.669Z,92717.75
2023-01-27T02:31:19.443Z,92724.06
2023-01-27T02:32:26.499Z,92723.44
2023-01-27T02:33:23.678Z,92685.59
2023-01-27T02:34:24.837Z,92694.09
2023-01-27T02:35:42.271Z,92721.59
2023-01-27T02:36:51.584Z,92712.28
2023-01-27T02:37:49.995Z,92715.78
2023-01-27T02:38:55.641Z,92704.72
2023-01-27T02:39:54.054Z,92701.19
2023-01-27T02:40:53.567Z,92698.94
2023-01-27T02:41:53.181Z,92709.53
2023-01-27T02:42:50.022Z,92703.03
2023-01-27T02:43:48.773Z,92711.53
2023-01-27T02:44:45.506Z,92716.19
2023-01-27T02:45:42.260Z,92702.75
2023-01-27T02:46:38.997Z,92733.97
2023-01-27T02:47:35.715Z,92730.59
2023-01-27T02:48:32.412Z,92694.53
2023-01-27T02:49:29.003Z,92704.88
2023-01-27T02:50:25.591Z,92723.69
2023-01-27T02:51:22.691Z,92705.88
2023-01-27T02:52:19.288Z,92724.88
2023-01-27T02:53:15.886Z,92722.75
2023-01-27T02:54:12.724Z,92724.88
2023-01-27T02:55:10.010Z,92727.38
2023-01-27T02:56:07.232Z,92699.84
2023-01-27T02:57:03.901Z,92728.22
2023-01-27T02:58:00.494Z,92732.19
2023-01-27T02:58:57.128Z,92733.63
2023-01-27T02:59:53.754Z,92734.63
2023-01-27T03:00:50.360Z,92715.25
2023-01-27T03:01:47.035Z,92731.06
2023-01-27T03:02:43.923Z,92696.97
2023-01-27T03:03:49.416Z,92737.78
2023-01-27T03:04:46.102Z,92745.03
2023-01-27T03:05:42.812Z,92741.50
2023-01-27T03:06:39.603Z,92706.06
2023-01-27T03:07:36.211Z,92747.06
2023-01-27T03:08:32.902Z,92741.50
2023-01-27T03:09:29.451Z,92721.44
2023-01-27T03:10:26.134Z,92745.56
2023-01-27T03:11:41.250Z,92680.13
2023-01-27T03:12:37.839Z,92743.97
2023-01-27T03:13:34.626Z,92732.34
2023-01-27T03:14:49.562Z,92736.72
2023-01-27T03:16:04.799Z,92708.56
2023-01-27T03:17:19.559Z,92737.00
2023-01-27T03:18:16.327Z,92732.97
2023-01-27T03:19:12.920Z,92732.38
2023-01-27T03:20:10.331Z,92724.06
2023-01-27T03:21:07.497Z,92730.34
2023-01-27T03:22:04.124Z,92731.06
2023-01-27T03:23:00.840Z,92735.34
2023-01-27T03:23:57.932Z,92731.59
2023-01-27T03:24:54.558Z,92729.44
2023-01-27T03:25:51.179Z,92725.75
2023-01-27T03:26:47.981Z,92731.47
2023-01-27T03:27:44.960Z,92719.63
2023-01-27T03:28:41.651Z,92694.31
2023-01-27T03:29:56.072Z,92734.63
2023-01-27T03:30:58.585Z,92706.31
2023-01-27T03:31:55.356Z,92726.66
2023-01-27T03:32:52.214Z,92694.94
2023-01-27T03:33:48.911Z,92716.66
2023-01-27T03:34:45.638Z,92717.44
2023-01-27T03:35:48.357Z,92712.81
2023-01-27T03:37:03.527Z,92714.75
2023-01-27T03:38:20.380Z,92709.41
2023-01-27T03:39:35.366Z,92701.31
2023-01-27T03:40:50.371Z,92695.81
2023-01-27T03:42:05.336Z,92695.00
2023-01-27T03:43:21.196Z,92686.78
2023-01-27T03:44:36.247Z,92688.94
2023-01-27T03:45:51.346Z,92672.63
2023-01-27T03:46:48.837Z,92681.41
2023-01-27T03:47:45.555Z,92670.97
2023-01-27T03:48:42.542Z,92690.25
2023-01-27T03:49:39.269Z,92672.50
2023-01-27T03:50:43.877Z,92671.88
2023-01-27T03:51:40.793Z,92669.94
2023-01-27T03:52:37.943Z,92670.34
2023-01-27T03:53:35.679Z,92679.84
2023-01-27T03:54:32.423Z,92661.72
2023-01-27T03:55:33.594Z,92671.31
2023-01-27T03:56:30.259Z,92653.66
2023-01-27T03:57:26.918Z,92661.28
2023-01-27T03:58:31.878Z,92659.75
2023-01-27T03:59:28.567Z,92646.41
2023-01-27T04:00:25.211Z,92656.63
2023-01-27T04:01:24.105Z,92654.47
2023-01-27T04:02:39.413Z,92652.69
2023-01-27T04:03:54.987Z,92661.63
2023-01-27T04:05:09.858Z,92602.59
2023-01-27T04:06:28.727Z,92651.75
2023-01-27T04:07:25.349Z,92651.75
2023-01-27T04:08:22.135Z,92649.72
2023-01-27T04:09:25.231Z,92574.44
2023-01-27T04:10:21.805Z,92655.78
2023-01-27T04:11:36.955Z,92610.56
2023-01-27T04:12:33.630Z,92660.13
2023-01-27T04:13:30.248Z,92647.66
2023-01-27T04:14:38.281Z,92670.59
2023-01-27T04:15:34.877Z,92652.91
2023-01-27T04:16:32.126Z,92695.56
2023-01-27T04:17:30.753Z,92698.97
2023-01-27T04:18:27.366Z,92716.09
2023-01-27T04:19:25.892Z,92713.53
2023-01-27T04:20:23.610Z,92624.97
2023-01-27T04:21:20.243Z,92724.63
2023-01-27T04:22:17.141Z,92733.78
2023-01-27T04:23:13.730Z,92730.53
2023-01-27T04:24:22.724Z,92733.13
2023-01-27T04:25:19.622Z,92746.13
2023-01-27T04:26:16.309Z,92748.63
2023-01-27T04:27:15.670Z,92753.63
2023-01-27T04:28:12.310Z,92750.13
2023-01-27T04:29:08.931Z,92762.53
2023-01-27T04:30:06.121Z,92754.19
2023-01-27T04:31:02.729Z,92761.63
2023-01-27T04:31:59.337Z,92756.16
2023-01-27T04:32:55.928Z,92765.16
2023-01-27T04:33:52.911Z,92762.50
2023-01-27T04:34:49.528Z,92763.00
2023-01-27T04:35:46.624Z,92759.72
2023-01-27T04:36:43.709Z,92761.25
2023-01-27T04:37:40.328Z,92765.81
2023-01-27T04:38:36.995Z,92764.97
2023-01-27T04:39:34.788Z,92783.63
2023-01-27T04:40:31.386Z,92764.63
2023-01-27T04:41:28.348Z,92790.47
2023-01-27T04:42:24.928Z,92797.88
2023-01-27T04:43:21.768Z,92781.84
2023-01-27T04:44:22.031Z,92760.44
2023-01-27T04:45:18.646Z,92746.50
2023-01-27T04:46:15.290Z,92779.53
2023-01-27T04:47:11.847Z,92754.19
2023-01-27T04:48:08.472Z,92775.59
2023-01-27T04:49:06.353Z,92777.44
2023-01-27T04:50:03.040Z,92771.34
2023-01-27T04:50:59.591Z,92775.47
2023-01-27T04:51:56.339Z,92775.16
2023-01-27T04:52:52.988Z,92786.75
2023-01-27T04:53:49.764Z,92780.03
2023-01-27T04:54:46.340Z,92784.53
2023-01-27T04:55:47.359Z,92787.63
2023-01-27T04:56:56.837Z,92776.28
2023-01-27T04:57:53.752Z,92775.47
2023-01-27T04:58:50.468Z,92766.91
2023-01-27T04:59:47.047Z,92776.09
2023-01-27T05:00:45.121Z,92783.25
2023-01-27T05:01:41.890Z,92758.13
2023-01-27T05:02:38.506Z,92777.34
2023-01-27T05:03:35.155Z,92784.34
2023-01-27T05:04:32.479Z,92775.72
2023-01-27T05:05:29.137Z,92779.19
2023-01-27T05:06:26.924Z,92780.94
2023-01-27T05:07:23.742Z,92765.84
2023-01-27T05:08:20.664Z,92741.34
2023-01-27T05:09:17.261Z,92770.97
2023-01-27T05:10:13.874Z,92774.34
2023-01-27T05:11:11.711Z,92765.06
2023-01-27T05:12:08.536Z,92772.50
2023-01-27T05:13:05.121Z,92766.28
2023-01-27T05:14:01.751Z,92757.88
2023-01-27T05:14:59.902Z,92759.13
2023-01-27T05:16:09.977Z,92757.16
2023-01-27T05:17:06.607Z,92752.53
2023-01-27T05:18:03.339Z,92754.56
2023-01-27T05:18:59.994Z,92758.38
2023-01-27T05:19:56.522Z,92753.38
2023-01-27T05:20:53.178Z,92752.81
2023-01-27T05:21:49.829Z,92750.06
2023-01-27T05:22:46.528Z,92751.44
2023-01-27T05:23:43.714Z,92746.72
2023-01-27T05:24:40.319Z,92744.09
2023-01-27T05:25:36.951Z,92745.75
2023-01-27T05:26:33.582Z,92746.41
2023-01-27T05:27:30.156Z,92747.84
2023-01-27T05:28:28.291Z,92747.53
2023-01-27T05:29:25.041Z,92745.41
2023-01-27T05:30:21.663Z,92738.16
2023-01-27T05:31:24.241Z,92742.50
2023-01-27T05:32:20.893Z,92741.84
2023-01-27T05:33:17.492Z,92741.44
2023-01-27T05:34:14.325Z,92731.13
2023-01-27T05:35:11.299Z,92736.97
2023-01-27T05:36:11.371Z,92730.47
2023-01-27T05:37:07.942Z,92726.69
2023-01-27T05:38:04.612Z,92723.91
2023-01-27T05:39:01.365Z,92717.53
2023-01-27T05:39:59.481Z,92695.69
2023-01-27T05:41:02.108Z,92702.59
2023-01-27T05:41:58.892Z,92716.56
2023-01-27T05:42:55.518Z,92724.59
2023-01-27T05:43:54.257Z,92713.97
2023-01-27T05:44:50.782Z,92717.44
2023-01-27T05:45:47.364Z,92710.63
2023-01-27T05:46:44.066Z,92713.00
2023-01-27T05:47:40.665Z,92695.53
2023-01-27T05:48:39.609Z,92708.00
2023-01-27T05:49:36.244Z,92703.41
2023-01-27T05:50:32.786Z,92706.94
2023-01-27T05:51:31.378Z,92700.31
2023-01-27T05:52:27.924Z,92703.28
2023-01-27T05:53:24.942Z,92701.94
2023-01-27T05:54:21.516Z,92699.78
2023-01-27T05:55:18.066Z,92697.66
2023-01-27T05:56:18.135Z,92702.31
2023-01-27T05:57:14.750Z,92717.03
2023-01-27T05:58:11.355Z,92696.84
2023-01-27T05:59:08.509Z,92711.63
2023-01-27T06:00:05.829Z,92708.72
2023-01-27T06:01:35.388Z,92714.38
2023-01-27T06:02:32.616Z,92718.22
2023-01-27T06:03:29.249Z,92714.06
2023-01-27T06:04:26.262Z,92718.06
2023-01-27T06:05:22.844Z,92698.13
2023-01-27T06:06:21.489Z,92672.38
2023-01-27T06:07:18.254Z,92734.13
2023-01-27T06:08:14.795Z,92730.13
2023-01-27T06:09:11.532Z,92699.91
2023-01-27T06:10:08.784Z,92737.03
2023-01-27T06:11:06.850Z,92711.78
2023-01-27T06:12:03.481Z,92739.81
2023-01-27T06:13:00.808Z,92744.59
2023-01-27T06:13:59.858Z,92751.16
2023-01-27T06:14:59.555Z,92749.03
2023-01-27T06:15:56.228Z,92749.41
2023-01-27T06:16:53.709Z,92748.97
2023-01-27T06:17:52.741Z,92723.66
2023-01-27T06:18:49.571Z,92741.84
2023-01-27T06:19:46.104Z,92749.63
2023-01-27T06:20:43.022Z,92746.34
2023-01-27T06:21:39.650Z,92744.59
2023-01-27T06:22:36.328Z,92753.22
2023-01-27T06:23:33.136Z,92749.22
2023-01-27T06:24:29.846Z,92750.94
2023-01-27T06:25:26.429Z,92747.75
2023-01-27T06:26:22.998Z,92740.66
2023-01-27T06:27:19.573Z,92745.50
2023-01-27T06:28:28.887Z,92741.91
2023-01-27T06:29:26.214Z,92746.06
2023-01-27T06:30:23.432Z,92744.50
2023-01-27T06:31:22.180Z,92704.88
2023-01-27T06:32:18.939Z,92753.03
2023-01-27T06:33:15.532Z,92751.66
2023-01-27T06:34:12.510Z,92751.19
2023-01-27T06:35:09.298Z,92752.25
2023-01-27T06:36:09.333Z,92756.13
2023-01-27T06:37:05.928Z,92753.78
2023-01-27T06:38:04.530Z,92757.78
2023-01-27T06:39:01.114Z,92746.06
2023-01-27T06:39:57.754Z,92741.06
2023-01-27T06:40:54.338Z,92746.66
2023-01-27T06:41:50.970Z,92759.50
2023-01-27T06:42:47.656Z,92762.13
2023-01-27T06:43:44.317Z,92763.06
2023-01-27T06:44:40.918Z,92741.97
2023-01-27T06:45:37.498Z,92757.84
2023-01-27T06:46:34.324Z,92756.66
2023-01-27T06:47:30.932Z,92756.03
2023-01-27T06:48:28.145Z,92721.06
2023-01-27T06:49:24.923Z,92739.78
2023-01-27T06:50:21.758Z,92761.50
2023-01-27T06:51:18.312Z,92754.56
2023-01-27T06:52:14.880Z,92767.28
2023-01-27T06:53:11.881Z,92746.19
2023-01-27T06:54:08.443Z,92771.59
2023-01-27T06:55:05.701Z,92776.34
2023-01-27T06:56:02.561Z,92768.31
2023-01-27T06:56:59.143Z,92772.78
2023-01-27T06:57:55.832Z,92769.25
2023-01-27T06:58:52.450Z,92775.16
2023-01-27T06:59:49.013Z,92769.03
2023-01-27T07:00:45.711Z,92772.91
2023-01-27T07:01:42.454Z,92777.56
2023-01-27T07:02:39.146Z,92784.78
2023-01-27T07:03:35.916Z,92784.19
2023-01-27T07:04:32.562Z,92781.28
2023-01-27T07:05:29.325Z,92778.91
2023-01-27T07:06:26.052Z,92781.34
2023-01-27T07:07:22.648Z,92739.16
2023-01-27T07:08:19.214Z,92751.31
2023-01-27T07:09:15.759Z,92755.84
2023-01-27T07:10:12.640Z,92743.69
2023-01-27T07:11:09.432Z,92775.81
2023-01-27T07:12:06.095Z,92765.53
2023-01-27T07:13:10.710Z,92774.59
2023-01-27T07:14:09.639Z,92757.44
2023-01-27T07:15:09.426Z,92726.19
2023-01-27T07:16:06.516Z,92768.84
2023-01-27T07:17:03.316Z,92760.00
2023-01-27T07:18:01.251Z,92766.94
2023-01-27T07:18:57.815Z,92764.31
2023-01-27T07:19:54.415Z,92755.94
2023-01-27T07:20:52.148Z,92755.56
2023-01-27T07:21:48.692Z,92756.09
2023-01-27T07:22:45.250Z,92765.84
2023-01-27T07:23:41.822Z,92764.88
2023-01-27T07:24:38.714Z,92764.16
2023-01-27T07:25:35.577Z,92670.22
2023-01-27T07:26:32.200Z,92764.03
2023-01-27T07:27:29.651Z,92776.09
2023-01-27T07:28:26.273Z,92765.47
2023-01-27T07:29:22.984Z,92773.81
2023-01-27T07:30:19.745Z,92773.69
2023-01-27T07:31:16.448Z,92755.19
2023-01-27T07:32:13.331Z,92770.63
2023-01-27T07:33:11.894Z,92773.25
2023-01-27T07:34:08.588Z,92771.63
2023-01-27T07:35:05.618Z,92752.91
2023-01-27T07:36:02.245Z,92758.94
2023-01-27T07:37:00.032Z,92771.50
2023-01-27T07:37:58.234Z,92765.41
2023-01-27T07:38:54.776Z,92739.41
2023-01-27T07:39:51.391Z,92770.34
2023-01-27T07:40:48.003Z,92766.91
2023-01-27T07:41:44.546Z,92758.72
2023-01-27T07:42:41.661Z,92775.50
2023-01-27T07:43:38.323Z,92774.94
2023-01-27T07:44:34.868Z,92773.69
2023-01-27T07:45:31.785Z,92780.25
2023-01-27T07:46:28.342Z,92780.44
2023-01-27T07:47:24.985Z,92769.31
2023-01-27T07:48:21.647Z,92767.53
2023-01-27T07:49:18.341Z,92766.81
2023-01-27T07:50:15.350Z,92771.47
2023-01-27T07:51:13.942Z,92771.66
2023-01-27T07:52:10.635Z,92765.59
2023-01-27T07:53:07.438Z,92765.47
2023-01-27T07:54:05.125Z,92760.69
2023-01-27T07:55:01.758Z,92768.38
2023-01-27T07:56:01.449Z,92731.53
2023-01-27T07:57:01.650Z,92771.84
2023-01-27T07:57:58.275Z,92745.06
2023-01-27T07:58:55.800Z,92761.34
2023-01-27T07:59:55.739Z,92765.56
2023-01-27T08:00:52.484Z,92771.88
2023-01-27T08:01:49.098Z,92773.59
2023-01-27T08:02:51.153Z,92775.00
2023-01-27T08:03:47.757Z,92751.22
2023-01-27T08:04:52.961Z,92774.44
2023-01-27T08:05:50.949Z,92774.13
2023-01-27T08:06:47.647Z,92769.69
2023-01-27T08:07:45.514Z,92768.59
2023-01-27T08:08:42.252Z,92777.00
2023-01-27T08:09:38.837Z,92771.63
2023-01-27T08:10:35.483Z,92768.50
2023-01-27T08:11:32.280Z,92771.44
2023-01-27T08:12:28.857Z,92771.44
2023-01-27T08:13:25.520Z,92768.44
2023-01-27T08:14:22.113Z,92778.34
2023-01-27T08:15:19.316Z,92774.16
2023-01-27T08:16:16.595Z,92772.75
2023-01-27T08:17:13.247Z,92765.22
2023-01-27T08:18:10.610Z,92771.72
2023-01-27T08:19:07.260Z,92765.22
2023-01-27T08:20:04.652Z,92784.78
2023-01-27T08:21:03.922Z,92776.56
2023-01-27T08:22:00.478Z,92781.81
2023-01-27T08:22:59.182Z,92776.91
2023-01-27T08:23:55.852Z,92783.88
2023-01-27T08:24:52.524Z,92776.72
2023-01-27T08:25:53.871Z,92786.97
2023-01-27T08:26:50.500Z,92758.56
2023-01-27T08:27:51.034Z,92777.56
2023-01-27T08:28:47.719Z,92777.59
2023-01-27T08:29:44.361Z,92731.03
2023-01-27T08:30:41.037Z,92773.06
2023-01-27T08:31:37.932Z,92758.81
2023-01-27T08:32:35.141Z,92772.91
2023-01-27T08:33:32.389Z,92757.72
2023-01-27T08:34:28.989Z,92762.41
2023-01-27T08:35:25.567Z,92779.41
2023-01-27T08:36:23.430Z,92778.28
2023-01-27T08:37:20.116Z,92774.69
2023-01-27T08:38:18.841Z,92693.56
2023-01-27T08:39:15.817Z,92755.25
2023-01-27T08:40:13.179Z,92778.44
2023-01-27T08:41:13.194Z,92743.59
2023-01-27T08:42:09.765Z,92754.31
2023-01-27T08:43:07.421Z,92772.34
2023-01-27T08:44:04.173Z,92774.78
2023-01-27T08:45:00.701Z,92776.63
2023-01-27T08:45:58.137Z,92778.00
2023-01-27T08:46:55.567Z,92757.09
2023-01-27T08:47:52.116Z,92776.16
2023-01-27T08:48:50.327Z,92778.63
2023-01-27T08:49:48.011Z,92772.31
2023-01-27T08:50:44.564Z,92775.66
2023-01-27T08:51:42.436Z,92771.63
2023-01-27T08:52:39.307Z,92758.66
2023-01-27T08:53:37.081Z,92757.75
2023-01-27T08:54:33.661Z,92774.44
2023-01-27T08:55:32.331Z,92772.75
2023-01-27T08:56:30.741Z,92782.31
2023-01-27T08:57:27.437Z,92768.88
2023-01-27T08:58:24.839Z,92753.06
2023-01-27T08:59:21.517Z,92768.84
2023-01-27T09:00:18.590Z,92773.97
2023-01-27T09:01:16.127Z,92756.59
2023-01-27T09:02:13.482Z,92748.88
2023-01-27T09:03:10.145Z,92789.06
2023-01-27T09:04:06.726Z,92767.31
2023-01-27T09:05:03.686Z,92781.06
2023-01-27T09:06:00.897Z,92784.47
2023-01-27T09:06:57.845Z,92788.94
2023-01-27T09:07:54.769Z,92783.88
2023-01-27T09:09:11.695Z,92760.22
2023-01-27T09:10:16.574Z,92780.31
2023-01-27T09:11:17.814Z,92770.75
2023-01-27T09:12:14.851Z,92785.13
2023-01-27T09:13:11.634Z,92778.94
2023-01-27T09:14:08.709Z,92783.44
2023-01-27T09:15:05.726Z,92772.91
2023-01-27T09:16:02.890Z,92769.81
2023-01-27T09:16:59.689Z,92770.66
2023-01-27T09:17:58.403Z,92782.50
2023-01-27T09:18:55.371Z,92776.44
2023-01-27T09:19:52.038Z,92779.97
2023-01-27T09:20:48.680Z,92776.34
2023-01-27T09:21:45.304Z,92771.84
2023-01-27T09:22:42.325Z,92773.22
2023-01-27T09:23:38.999Z,92768.13
2023-01-27T09:24:35.605Z,92766.59
2023-01-27T09:25:32.422Z,92772.19
2023-01-27T09:26:28.976Z,92762.63
2023-01-27T09:27:38.127Z,92752.88
2023-01-27T09:28:35.576Z,92759.53
2023-01-27T09:29:32.208Z,92762.94
2023-01-27T09:30:29.356Z,92751.94
2023-01-27T09:31:26.047Z,92758.41
2023-01-27T09:32:22.751Z,92764.63
2023-01-27T09:33:19.497Z,92754.91
2023-01-27T09:34:17.887Z,92753.53
2023-01-27T09:35:14.928Z,92757.53
2023-01-27T09:36:15.683Z,92757.06
2023-01-27T09:37:13.630Z,92753.81
2023-01-27T09:38:12.200Z,92759.66
2023-01-27T09:39:09.220Z,92674.38
2023-01-27T09:40:28.821Z,92758.41
2023-01-27T09:41:37.605Z,92751.16
2023-01-27T09:42:40.226Z,92745.47
2023-01-27T09:44:06.046Z,92752.53
2023-01-27T09:45:26.112Z,92745.31
2023-01-27T09:47:00.143Z,92743.13
2023-01-27T09:48:23.276Z,92737.00
2023-01-27T09:49:32.593Z,92691.75
2023-01-27T09:50:57.837Z,92703.97
2023-01-27T09:52:47.501Z,92720.28
2023-01-27T09:54:03.226Z,92736.09
2023-01-27T09:55:05.624Z,92730.06
2023-01-27T09:56:09.183Z,92736.09
2023-01-27T09:57:25.318Z,92741.03
2023-01-27T09:58:40.554Z,92733.78
2023-01-27T09:59:49.282Z,92733.63
2023-01-27T10:00:59.815Z,92736.25
2023-01-27T10:02:12.474Z,92732.53
2023-01-27T10:03:26.910Z,92739.78
2023-01-27T10:04:42.516Z,92730.81
2023-01-27T10:05:48.081Z,92743.34
2023-01-27T10:07:26.752Z,92734.38
2023-01-27T10:08:38.655Z,92724.66
2023-01-27T10:09:41.187Z,92727.25
2023-01-27T10:10:40.530Z,92736.50
2023-01-27T10:11:56.831Z,92724.13
2023-01-27T10:13:07.064Z,92730.94
2023-01-27T10:14:34.887Z,92719.66
2023-01-27T10:16:03.269Z,92730.03
2023-01-27T10:17:12.105Z,92721.56
2023-01-27T10:18:29.008Z,92719.25
2023-01-27T10:19:40.172Z,92722.25
2023-01-27T10:20:46.253Z,92720.16
2023-01-27T10:21:42.862Z,92719.56
2023-01-27T10:22:45.377Z,92722.81
2023-01-27T10:23:52.122Z,92721.72
2023-01-27T10:25:18.003Z,92723.88
2023-01-27T10:26:31.712Z,92717.69
2023-01-27T10:27:37.064Z,92696.22
2023-01-27T10:28:34.615Z,92720.47
2023-01-27T10:29:45.561Z,92711.50
2023-01-27T10:30:58.885Z,92718.47
2023-01-27T10:32:20.436Z,92718.78
2023-01-27T10:33:19.860Z,92723.88
2023-01-27T10:34:22.485Z,92723.69
2023-01-27T10:35:30.909Z,92692.97
2023-01-27T10:36:52.405Z,92717.53
2023-01-27T10:38:14.505Z,92690.84
2023-01-27T10:39:31.707Z,92711.06
2023-01-27T10:40:28.406Z,92718.47
2023-01-27T10:41:44.913Z,92722.13
2023-01-27T10:43:08.439Z,92712.75
2023-01-27T10:44:04.995Z,92717.69
2023-01-27T10:45:42.716Z,92702.56
2023-01-27T10:46:48.417Z,92674.47
2023-01-27T10:47:47.774Z,92706.59
2023-01-27T10:48:44.324Z,92703.97
2023-01-27T10:49:47.140Z,92695.31
2023-01-27T10:50:50.276Z,92703.34
2023-01-27T10:51:53.371Z,92679.13
2023-01-27T10:52:55.823Z,92703.81
2023-01-27T10:54:09.305Z,92708.44
2023-01-27T10:55:22.611Z,92670.00
2023-01-27T10:56:47.976Z,92705.97
2023-01-27T10:58:01.906Z,92706.91
2023-01-27T10:59:35.533Z,92710.13
2023-01-27T11:01:09.093Z,92704.72
2023-01-27T11:02:13.551Z,92708.09
2023-01-27T11:03:15.524Z,92703.78
2023-01-27T11:04:24.018Z,92706.25
2023-01-27T11:05:28.731Z,92695.13
2023-01-27T11:06:30.829Z,92702.22
2023-01-27T11:07:27.708Z,92697.28
2023-01-27T11:08:36.727Z,92694.25
2023-01-27T11:09:49.275Z,92690.22
2023-01-27T11:11:08.630Z,92658.41
2023-01-27T11:12:12.715Z,92694.56
2023-01-27T11:13:14.748Z,92646.38
2023-01-27T11:14:31.102Z,92693.31
2023-01-27T11:15:32.004Z,92658.75
2023-01-27T11:16:35.469Z,92689.00
2023-01-27T11:17:45.015Z,92688.22
2023-01-27T11:18:43.335Z,92679.88
2023-01-27T11:19:48.499Z,92690.69
2023-01-27T11:20:49.560Z,92678.81
2023-01-27T11:21:50.747Z,92687.16
2023-01-27T11:23:10.242Z,92684.06
2023-01-27T11:24:33.180Z,92529.75
2023-01-27T11:25:43.079Z,92686.06
2023-01-27T11:26:43.594Z,92687.47
2023-01-27T11:28:18.941Z,92689.59
2023-01-27T11:29:42.492Z,92689.44
2023-01-27T11:31:02.696Z,92681.13
2023-01-27T11:32:23.172Z,92694.22
2023-01-27T11:33:40.665Z,92658.44
2023-01-27T11:35:12.393Z,92683.44
2023-01-27T11:36:09.987Z,92609.34
2023-01-27T11:37:29.881Z,92680.66
2023-01-27T11:38:26.538Z,92674.78
2023-01-27T11:39:23.516Z,92675.25
2023-01-27T11:40:27.939Z,92672.47
2023-01-27T11:41:25.414Z,92630.16
2023-01-27T11:42:22.949Z,92677.41
2023-01-27T11:43:23.975Z,92679.06
2023-01-27T11:44:34.048Z,92593.63
2023-01-27T11:45:35.490Z,92696.19
2023-01-27T11:46:35.135Z,92675.13
2023-01-27T11:47:39.032Z,92672.34
2023-01-27T11:48:43.695Z,92666.09
2023-01-27T11:49:44.973Z,92672.75
2023-01-27T11:50:42.977Z,92625.69
2023-01-27T11:51:40.384Z,92645.91
2023-01-27T11:52:37.084Z,92678.44
2023-01-27T11:53:40.006Z,92675.06